Mariella — OITI — position and weather

sailwx.info

Track history (hours):
 
Tides and Currents Weather Stations Pressure Air Temp Water Temp Dewpoint Dewpoint Depression Visibility Wind Speed Wind Dir Waves Ship Positions

Mariella

Last reported at 2018-Feb-24 06:01 UTC. Time now 2018-Feb-24 06:14 UTC.
Position N 59°35' E 018°42'.

Length 177 m; draft 6.7 m.

Type: Ship (hazmat cat A). MMSI: 230181000.

Date/timePositionNaut miles runAvg speedWind from/ knotsBaromVisibWave heightAir tempDewpointWater temp
2018-Feb-24 06:01N 59°35' E 018°42'612.2
2018-Feb-24 05:30N 59°38' E 018°52'611.6
2018-Feb-24 05:01N 59°42' E 019°01'815.1
2018-Feb-24 04:30N 59°45' E 019°15'815.0
2018-Feb-24 04:00N 59°49' E 019°27'815.2
2018-Feb-24 03:31N 59°54' E 019°38'915.2
2018-Feb-24 02:56N 60°01' E 019°50'4111.7
2018-Feb-23 23:26N 59°38' E 020°58'717.2
2018-Feb-23 23:00N 59°36' E 021°12'917.4
2018-Feb-23 22:31N 59°34' E 021°29'4217.4
2018-Feb-23 20:06N 59°37' E 022°52'218.4
2018-Feb-23 20:00N 59°38' E 022°55'917.9
2018-Feb-23 19:30N 59°39' E 023°12'917.8
2018-Feb-23 19:01N 59°41' E 023°29'918.2
2018-Feb-23 18:30N 59°44' E 023°47'917.8
2018-Feb-23 18:00N 59°47' E 024°04'918.0
2018-Feb-23 17:30N 59°50' E 024°20'816.0
2018-Feb-23 17:00N 59°53' E 024°35'917.1
2018-Feb-23 16:30N 59°58' E 024°49'815.2
2018-Feb-23 16:00N 60°04' E 024°58'611.8
2018-Feb-23 15:30N 60°10' E 024°58'0 0.2
2018-Feb-23 14:59N 60°10' E 024°58'0 0.0
2018-Feb-23 14:29N 60°10' E 024°58'0 0.0
2018-Feb-23 13:59N 60°10' E 024°58'0 0.0
2018-Feb-23 13:29N 60°10' E 024°58'0 0.0
2018-Feb-23 12:59N 60°10' E 024°58'0 0.0
2018-Feb-23 12:29N 60°10' E 024°58'0 0.0
2018-Feb-23 11:59N 60°10' E 024°58'0 0.0
2018-Feb-23 11:29N 60°10' E 024°58'0 0.0
2018-Feb-23 10:59N 60°10' E 024°58'0 0.0
2018-Feb-23 10:29N 60°10' E 024°58'0 0.0
2018-Feb-23 09:59N 60°10' E 024°58'0 0.0
2018-Feb-23 09:29N 60°10' E 024°58'0 0.0
2018-Feb-23 08:56N 60°10' E 024°58'0 0.0
2018-Feb-23 08:29N 60°10' E 024°58'0 0.0
2018-Feb-23 08:00N 60°10' E 024°58'612.1
2018-Feb-23 07:30N 60°04' E 024°58'815.8
2018-Feb-23 07:01N 59°57' E 024°48'816.8
2018-Feb-23 06:31N 59°53' E 024°34'917.0
2018-Feb-23 06:00N 59°49' E 024°19'918.2
2018-Feb-23 05:31N 59°47' E 024°01'918.5
2018-Feb-23 05:01N 59°45' E 023°44'918.5
2018-Feb-23 04:30N 59°42' E 023°26'918.6
2018-Feb-23 04:01N 59°40' E 023°08'1018.7
2018-Feb-23 03:30N 59°38' E 022°49'1418.2
2018-Feb-23 02:43N 59°35' E 022°22'419.0
2018-Feb-23 02:30N 59°34' E 022°14'1618.0
2018-Feb-23 01:37N 59°32' E 021°43'218.2
2018-Feb-23 01:30N 59°33' E 021°39'918.4
2018-Feb-23 01:00N 59°34' E 021°21'918.3
2018-Feb-23 00:30N 59°36' E 021°03'3318.1
2018-Feb-22 22:40N 59°51' E 020°04'318.3
2018-Feb-22 22:30N 59°53' E 019°59'9 5.1
2018-Feb-22 20:46N 59°58' E 019°45'417.3
2018-Feb-22 20:30N 59°55' E 019°39'917.4
2018-Feb-22 20:00N 59°49' E 019°27'816.9
2018-Feb-22 19:30N 59°44' E 019°13'917.3
2018-Feb-22 19:00N 59°40' E 018°57'611.5
2018-Feb-22 18:30N 59°37' E 018°48'612.4
2018-Feb-22 18:00N 59°34' E 018°38'5 9.7
2018-Feb-22 17:30N 59°31' E 018°30'611.8
2018-Feb-22 17:00N 59°26' E 018°23'4 9.1
2018-Feb-22 16:30N 59°22' E 018°25'510.3
2018-Feb-22 16:00N 59°21' E 018°15'510.2
2018-Feb-22 15:30N 59°19' E 018°06'0 0.1
2018-Feb-22 15:00N 59°19' E 018°06'0 0.0
2018-Feb-22 14:30N 59°19' E 018°06'0 0.0
2018-Feb-22 13:54N 59°19' E 018°06'0 0.0
2018-Feb-22 13:24N 59°19' E 018°06'0 0.0
2018-Feb-22 13:00N 59°19' E 018°06'0 0.0
2018-Feb-22 12:30N 59°19' E 018°06'0 0.0
2018-Feb-22 12:00N 59°19' E 018°06'0 0.0
2018-Feb-22 11:30N 59°19' E 018°06'0 0.0
2018-Feb-22 10:57N 59°19' E 018°06'0 0.0
2018-Feb-22 10:27N 59°19' E 018°06'0 0.0
2018-Feb-22 10:00N 59°19' E 018°06'0 0.0
2018-Feb-22 09:30N 59°19' E 018°06'0 0.0
2018-Feb-22 09:01N 59°19' E 018°06'3 5.4
2018-Feb-22 08:30N 59°20' E 018°11'611.5
2018-Feb-22 08:00N 59°23' E 018°21'3 6.4
2018-Feb-22 07:30N 59°24' E 018°27'4 9.0
2018-Feb-22 07:00N 59°28' E 018°26'510.6
2018-Feb-22 06:30N 59°32' E 018°33'511.1
2018-Feb-22 06:00N 59°35' E 018°43'612.6
2018-Feb-22 05:30N 59°38' E 018°53'612.0
2018-Feb-22 05:00N 59°42' E 019°02'815.1
2018-Feb-22 04:30N 59°45' E 019°16'714.8
2018-Feb-22 04:00N 59°49' E 019°28'815.2
2018-Feb-22 03:30N 59°55' E 019°38'815.2
2018-Feb-22 02:59N 60°00' E 019°50'4011.6
2018-Feb-21 23:33N 59°38' E 020°55'117.4
2018-Feb-21 23:29N 59°38' E 020°58'817.2
2018-Feb-21 23:00N 59°36' E 021°14'917.3
2018-Feb-21 22:30N 59°34' E 021°30'1316.9
2018-Feb-21 21:45N 59°32' E 021°55'3017.4
2018-Feb-21 20:02N 59°38' E 022°53'118.1
2018-Feb-21 20:00N 59°38' E 022°54'917.5
2018-Feb-21 19:30N 59°40' E 023°11'917.6
2018-Feb-21 19:00N 59°42' E 023°28'917.8
2018-Feb-21 18:30N 59°44' E 023°45'917.6
2018-Feb-21 18:00N 59°46' E 024°02'917.7
2018-Feb-21 17:31N 59°49' E 024°18'917.1
2018-Feb-21 17:00N 59°53' E 024°34'917.4
2018-Feb-21 16:30N 59°57' E 024°48'816.7
2018-Feb-21 16:00N 60°04' E 024°58'511.0
2018-Feb-21 15:31N 60°10' E 024°57'0 0.3
2018-Feb-21 14:58N 60°10' E 024°58'0 0.0
2018-Feb-21 14:28N 60°10' E 024°58'0 0.0
2018-Feb-21 13:58N 60°10' E 024°58'0 0.0
2018-Feb-21 13:28N 60°10' E 024°58'0 0.0
2018-Feb-21 12:58N 60°10' E 024°58'0 0.0
2018-Feb-21 12:28N 60°10' E 024°58'0 0.0
2018-Feb-21 11:58N 60°10' E 024°58'0 0.0
2018-Feb-21 11:28N 60°10' E 024°58'0 0.0
2018-Feb-21 10:58N 60°10' E 024°58'0 0.0
2018-Feb-21 10:28N 60°10' E 024°58'0 0.0
2018-Feb-21 09:58N 60°10' E 024°58'0 0.0
2018-Feb-21 09:28N 60°10' E 024°58'0 0.0
2018-Feb-21 08:58N 60°10' E 024°58'0 0.0
2018-Feb-21 08:31N 60°10' E 024°58'0 0.1
2018-Feb-21 08:01N 60°10' E 024°58'611.7
2018-Feb-21 07:30N 60°04' E 024°58'815.9
2018-Feb-21 07:00N 59°58' E 024°48'816.9
2018-Feb-21 06:31N 59°53' E 024°34'917.1
2018-Feb-21 06:00N 59°49' E 024°19'918.2
2018-Feb-21 05:30N 59°46' E 024°02'1019.0
2018-Feb-21 05:00N 59°44' E 023°43'918.7
2018-Feb-21 04:30N 59°42' E 023°25'918.5
2018-Feb-21 04:01N 59°39' E 023°08'1018.6
2018-Feb-21 03:30N 59°38' E 022°49'1318.0
2018-Feb-21 02:47N 59°35' E 022°24'518.2
2018-Feb-21 02:30N 59°34' E 022°14'1517.9
2018-Feb-21 01:41N 59°32' E 021°46'318.3
2018-Feb-21 01:30N 59°32' E 021°39'918.3
2018-Feb-21 01:00N 59°34' E 021°22'918.5
2018-Feb-21 00:30N 59°36' E 021°04'3418.0
2018-Feb-20 22:39N 59°51' E 020°04'12 6.3
2018-Feb-20 20:42N 59°57' E 019°44'317.6
2018-Feb-20 20:31N 59°55' E 019°39'917.5
2018-Feb-20 20:00N 59°48' E 019°27'917.2
2018-Feb-20 19:30N 59°44' E 019°12'817.0
2018-Feb-20 19:01N 59°40' E 018°57'611.5
2018-Feb-20 18:31N 59°37' E 018°48'612.4
2018-Feb-20 18:01N 59°34' E 018°38'510.1
2018-Feb-20 17:31N 59°31' E 018°30'611.7
2018-Feb-20 17:00N 59°26' E 018°23'4 8.5
2018-Feb-20 16:30N 59°22' E 018°25'510.4
2018-Feb-20 16:00N 59°21' E 018°15'5 9.8
2018-Feb-20 15:30N 59°19' E 018°06'0 0.1
2018-Feb-20 15:00N 59°19' E 018°06'0 0.0
2018-Feb-20 14:30N 59°19' E 018°06'0 0.0
2018-Feb-20 14:00N 59°19' E 018°06'0 0.0
2018-Feb-20 13:30N 59°19' E 018°06'0 0.0
2018-Feb-20 13:00N 59°19' E 018°06'0 0.0
2018-Feb-20 12:30N 59°19' E 018°06'0 0.0
2018-Feb-20 12:00N 59°19' E 018°06'0 0.0
2018-Feb-20 11:30N 59°19' E 018°06'0 0.0
2018-Feb-20 11:00N 59°19' E 018°06'0 0.0
2018-Feb-20 10:27N 59°19' E 018°06'0 0.0
2018-Feb-20 10:00N 59°19' E 018°06'0 0.0
2018-Feb-20 09:30N 59°19' E 018°06'0 0.0
2018-Feb-20 09:00N 59°19' E 018°06'3 5.9
2018-Feb-20 08:30N 59°20' E 018°12'611.2
2018-Feb-20 08:00N 59°23' E 018°21'3 6.1
2018-Feb-20 07:30N 59°24' E 018°27'4 8.8
2018-Feb-20 07:00N 59°28' E 018°26'510.8
2018-Feb-20 06:30N 59°32' E 018°34'611.3
2018-Feb-20 06:00N 59°35' E 018°43'612.9
2018-Feb-20 05:30N 59°39' E 018°53'611.4
2018-Feb-20 05:01N 59°42' E 019°02'815.3
2018-Feb-20 04:31N 59°45' E 019°17'815.3
2018-Feb-20 04:01N 59°49' E 019°29'815.5
2018-Feb-20 03:31N 59°55' E 019°39'4210.6
2018-Feb-19 23:32N 59°38' E 020°56'017.0
2018-Feb-19 23:30N 59°38' E 020°57'917.2
2018-Feb-19 23:00N 59°36' E 021°13'917.3
2018-Feb-19 22:30N 59°34' E 021°30'4217.2
2018-Feb-19 20:03N 59°38' E 022°53'117.2
2018-Feb-19 20:00N 59°38' E 022°55'917.7
2018-Feb-19 19:30N 59°40' E 023°12'917.7
2018-Feb-19 19:00N 59°42' E 023°29'917.9
2018-Feb-19 18:30N 59°44' E 023°46'917.3
2018-Feb-19 18:00N 59°47' E 024°02'917.6
2018-Feb-19 17:30N 59°49' E 024°19'917.5
2018-Feb-19 17:00N 59°53' E 024°34'917.6
2018-Feb-19 16:30N 59°58' E 024°50'816.5
2018-Feb-19 16:01N 60°05' E 024°58'510.2
2018-Feb-19 15:31N 60°10' E 024°58'0 0.2
2018-Feb-19 15:00N 60°10' E 024°58'0 0.0
2018-Feb-19 14:30N 60°10' E 024°58'0 0.0
2018-Feb-19 14:00N 60°10' E 024°58'0 0.0
2018-Feb-19 13:30N 60°10' E 024°58'0 0.0
2018-Feb-19 13:00N 60°10' E 024°58'0 0.0
2018-Feb-19 12:30N 60°10' E 024°58'0 0.0
2018-Feb-19 12:00N 60°10' E 024°58'0 0.0
2018-Feb-19 11:29N 60°10' E 024°58'0 0.0
2018-Feb-19 11:00N 60°10' E 024°58'0 0.0
2018-Feb-19 10:28N 60°10' E 024°58'0 0.0
2018-Feb-19 10:00N 60°10' E 024°58'0 0.0
2018-Feb-19 09:30N 60°10' E 024°58'0 0.0
2018-Feb-19 08:59N 60°10' E 024°58'0 0.0
2018-Feb-19 08:30N 60°10' E 024°58'0 0.0
2018-Feb-19 08:00N 60°10' E 024°58'3 6.6
2018-Feb-19 07:30N 60°07' E 024°59'816.8
2018-Feb-19 07:00N 59°59' E 024°53'918.0
2018-Feb-19 06:30N 59°54' E 024°37'918.2
2018-Feb-19 06:00N 59°50' E 024°22'918.3
2018-Feb-19 05:30N 59°47' E 024°04'918.3
2018-Feb-19 05:00N 59°45' E 023°46'918.3
2018-Feb-19 04:30N 59°43' E 023°29'918.3
2018-Feb-19 04:00N 59°41' E 023°11'1018.3
2018-Feb-19 03:27N 59°38' E 022°52'1718.3
2018-Feb-19 02:32N 59°35' E 022°19'018.2
2018-Feb-19 02:30N 59°34' E 022°18'1718.4
2018-Feb-19 01:34N 59°32' E 021°45'119.0
2018-Feb-19 01:30N 59°32' E 021°42'918.9
2018-Feb-19 01:01N 59°34' E 021°24'1018.9
2018-Feb-19 00:30N 59°36' E 021°05'3418.5
2018-Feb-18 22:38N 59°51' E 020°04'12 6.2
2018-Feb-18 20:41N 59°57' E 019°43'316.9
2018-Feb-18 20:31N 59°55' E 019°39'816.9
2018-Feb-18 20:01N 59°49' E 019°28'816.5
2018-Feb-18 19:31N 59°44' E 019°14'816.8
2018-Feb-18 19:00N 59°41' E 018°59'611.9
2018-Feb-18 18:30N 59°37' E 018°50'612.5
2018-Feb-18 18:01N 59°34' E 018°39'510.2
2018-Feb-18 17:30N 59°31' E 018°31'611.6
2018-Feb-18 17:00N 59°26' E 018°24'510.5
2018-Feb-18 16:30N 59°21' E 018°27'510.5
2018-Feb-18 16:00N 59°22' E 018°16'611.0
2018-Feb-18 15:30N 59°19' E 018°07'0 0.8
2018-Feb-18 14:59N 59°19' E 018°06'0 0.0
2018-Feb-18 14:29N 59°19' E 018°06'0 0.0
2018-Feb-18 13:59N 59°19' E 018°06'0 0.0
2018-Feb-18 13:29N 59°19' E 018°06'0 0.0
2018-Feb-18 12:59N 59°19' E 018°06'0 0.0
2018-Feb-18 12:29N 59°19' E 018°06'0 0.0
2018-Feb-18 11:59N 59°19' E 018°06'0 0.0
2018-Feb-18 11:29N 59°19' E 018°06'0 0.0
2018-Feb-18 10:59N 59°19' E 018°06'0 0.0
2018-Feb-18 10:29N 59°19' E 018°06'0 0.0
2018-Feb-18 09:59N 59°19' E 018°06'0 0.0
2018-Feb-18 09:29N 59°19' E 018°06'0 0.0
2018-Feb-18 09:00N 59°19' E 018°06'3 6.0
2018-Feb-18 08:30N 59°20' E 018°12'611.4
2018-Feb-18 08:00N 59°22' E 018°21'3 5.8
2018-Feb-18 07:30N 59°24' E 018°27'4 8.4
2018-Feb-18 07:01N 59°28' E 018°26'510.8
2018-Feb-18 06:30N 59°32' E 018°33'511.1
2018-Feb-18 06:00N 59°35' E 018°43'612.5
2018-Feb-18 05:30N 59°39' E 018°53'612.0
2018-Feb-18 05:01N 59°42' E 019°02'815.1
2018-Feb-18 04:31N 59°45' E 019°16'714.9
2018-Feb-18 04:01N 59°49' E 019°28'815.2
2018-Feb-18 03:31N 59°55' E 019°39'4210.7
2018-Feb-17 23:35N 59°38' E 020°55'117.5
2018-Feb-17 23:30N 59°38' E 020°58'917.5
2018-Feb-17 23:01N 59°36' E 021°15'917.6
2018-Feb-17 22:30N 59°34' E 021°32'1117.4
2018-Feb-17 21:54N 59°32' E 021°53'917.3
2018-Feb-17 21:22N 59°33' E 022°10'2217.8
2018-Feb-17 20:10N 59°37' E 022°52'317.8
2018-Feb-17 20:00N 59°38' E 022°58'917.6
2018-Feb-17 19:31N 59°40' E 023°14'917.4
2018-Feb-17 19:01N 59°42' E 023°31'917.4
2018-Feb-17 18:30N 59°44' E 023°48'917.6
2018-Feb-17 18:00N 59°47' E 024°05'917.4
2018-Feb-17 17:30N 59°49' E 024°21'917.7
2018-Feb-17 17:01N 59°54' E 024°36'917.6
2018-Feb-17 16:31N 59°58' E 024°51'816.8
2018-Feb-17 16:01N 60°06' E 024°59'4 8.2
2018-Feb-17 15:30N 60°10' E 024°58'0 0.3
2018-Feb-17 14:58N 60°10' E 024°58'0 0.0
2018-Feb-17 14:28N 60°10' E 024°58'0 0.0
2018-Feb-17 13:58N 60°10' E 024°58'0 0.0
2018-Feb-17 13:28N 60°10' E 024°58'0 0.0
2018-Feb-17 12:58N 60°10' E 024°58'0 0.0
2018-Feb-17 12:28N 60°10' E 024°58'0 0.0
2018-Feb-17 11:58N 60°10' E 024°58'0 0.0
2018-Feb-17 11:29N 60°10' E 024°58'0 0.0
2018-Feb-17 11:00N 60°10' E 024°58'2 5.0
2018-Feb-17 10:30N 60°07' E 024°59'713.9
2018-Feb-17 10:01N 60°01' E 025°00'612.8
2018-Feb-17 09:30N 59°57' E 025°10'1 1.1
2018-Feb-17 09:00N 59°57' E 025°11'1 1.7
2018-Feb-17 08:31N 59°57' E 025°12'4 7.2
2018-Feb-17 08:00N 59°59' E 025°06'0 0.8
2018-Feb-17 07:30N 59°59' E 025°06'1 1.8
2018-Feb-17 07:00N 59°59' E 025°08'1 1.8
2018-Feb-17 06:30N 59°58' E 025°10'1 1.9
2018-Feb-17 06:00N 59°58' E 025°12'1 1.9
2018-Feb-17 05:30N 59°58' E 025°13'1 1.9
2018-Feb-17 05:00N 59°58' E 025°15'1 1.9
2018-Feb-17 04:28N 59°57' E 025°17'1 1.0
2018-Feb-17 03:58N 59°57' E 025°17'612.1
2018-Feb-17 03:31N 59°56' E 025°06'1 1.1
2018-Feb-17 03:00N 59°56' E 025°07'1 1.9
2018-Feb-17 02:30N 59°56' E 025°09'1 1.8
2018-Feb-17 02:00N 59°56' E 025°10'1 1.7
2018-Feb-17 01:28N 59°56' E 025°12'1 1.6
2018-Feb-17 01:00N 59°56' E 025°14'1 1.4
2018-Feb-17 00:30N 59°56' E 025°15'4 8.1
2018-Feb-17 00:01N 59°57' E 025°07'611.4
2018-Feb-16 23:31N 59°59' E 024°56'1 1.1
2018-Feb-16 23:00N 59°58' E 024°56'0 0.9
2018-Feb-16 22:31N 59°58' E 024°57'0 0.8
2018-Feb-16 22:01N 59°58' E 024°57'0 0.8
2018-Feb-16 21:31N 59°58' E 024°58'0 0.8
2018-Feb-16 21:00N 59°57' E 024°59'0 0.4
2018-Feb-16 20:30N 59°57' E 024°59'815.2
2018-Feb-16 20:01N 59°50' E 024°56'815.1
2018-Feb-16 19:31N 59°42' E 024°52'815.4
2018-Feb-16 19:01N 59°37' E 024°42'815.8
2018-Feb-16 18:30N 59°29' E 024°46'3 5.3
2018-Feb-16 18:01N 59°27' E 024°46'3 5.6
2018-Feb-16 17:30N 59°29' E 024°45'612.6
2018-Feb-16 17:01N 59°35' E 024°41'611.9
2018-Feb-16 16:31N 59°41' E 024°44'612.6
2018-Feb-16 16:01N 59°47' E 024°49'612.7
2018-Feb-16 15:31N 59°53' E 024°53'612.6
2018-Feb-16 15:01N 59°59' E 024°57'612.7
2018-Feb-16 14:31N 60°05' E 024°58'5 9.4
2018-Feb-16 14:00N 60°10' E 024°58'0 0.3
2018-Feb-16 13:29N 60°10' E 024°58'0 0.0
2018-Feb-16 12:59N 60°10' E 024°58'0 0.0
2018-Feb-16 12:29N 60°10' E 024°58'0 0.0
2018-Feb-16 11:59N 60°10' E 024°58'0 0.0
2018-Feb-16 11:29N 60°10' E 024°58'0 0.0
2018-Feb-16 10:59N 60°10' E 024°58'2 5.1
2018-Feb-16 10:31N 60°08' E 024°59'713.4
2018-Feb-16 10:00N 60°01' E 024°57'713.0
2018-Feb-16 09:30N 59°54' E 024°58'914.5
2018-Feb-16 08:52N 59°46' E 025°08'514.4
2018-Feb-16 08:30N 59°45' E 025°18'0 0.4
2018-Feb-16 08:00N 59°45' E 025°18'1 1.3
2018-Feb-16 07:30N 59°44' E 025°18'1 1.2
2018-Feb-16 07:00N 59°44' E 025°17'1 1.1
2018-Feb-16 06:30N 59°43' E 025°17'1 1.0
2018-Feb-16 06:00N 59°43' E 025°17'0 0.9
2018-Feb-16 05:30N 59°42' E 025°17'0 1.0
2018-Feb-16 05:00N 59°42' E 025°17'0 0.8
2018-Feb-16 04:30N 59°41' E 025°17'0 0.8
2018-Feb-16 04:00N 59°41' E 025°17'5 9.1
2018-Feb-16 03:27N 59°46' E 025°14'0 0.6
2018-Feb-16 03:00N 59°46' E 025°14'0 0.4
2018-Feb-16 02:30N 59°46' E 025°14'0 0.5
2018-Feb-16 02:00N 59°46' E 025°13'0 0.8
2018-Feb-16 01:30N 59°45' E 025°13'0 0.9
2018-Feb-16 00:58N 59°45' E 025°13'0 0.9
2018-Feb-16 00:30N 59°44' E 025°12'1 1.1
2018-Feb-16 00:00N 59°44' E 025°13'1 1.2
2018-Feb-15 23:30N 59°43' E 025°13'1 1.3
2018-Feb-15 23:00N 59°43' E 025°13'1 1.3
2018-Feb-15 22:30N 59°42' E 025°13'1 1.4
2018-Feb-15 22:00N 59°41' E 025°14'1 1.4
2018-Feb-15 21:30N 59°41' E 025°14'0 0.6
2018-Feb-15 21:00N 59°41' E 025°14'510.3
2018-Feb-15 20:30N 59°42' E 025°05'612.4
2018-Feb-15 20:00N 59°43' E 024°53'612.5
2018-Feb-15 19:30N 59°38' E 024°44'611.2
2018-Feb-15 19:00N 59°33' E 024°44'611.9
2018-Feb-15 18:30N 59°27' E 024°47'1 1.1
2018-Feb-15 18:00N 59°27' E 024°46'3 5.5
2018-Feb-15 17:30N 59°29' E 024°45'612.5
2018-Feb-15 17:00N 59°35' E 024°41'611.6
2018-Feb-15 16:30N 59°41' E 024°44'612.4
2018-Feb-15 16:00N 59°47' E 024°49'612.4
2018-Feb-15 15:30N 59°52' E 024°53'612.4
2018-Feb-15 15:00N 59°58' E 024°57'612.6
2018-Feb-15 14:30N 60°05' E 024°58'510.7
2018-Feb-15 14:00N 60°10' E 024°58'0 0.3
2018-Feb-15 13:30N 60°10' E 024°58'0 0.0
2018-Feb-15 13:00N 60°10' E 024°58'0 0.0
2018-Feb-15 12:30N 60°10' E 024°58'0 0.0
2018-Feb-15 12:00N 60°10' E 024°58'0 0.0
2018-Feb-15 11:30N 60°10' E 024°58'0 0.0
2018-Feb-15 10:54N 60°10' E 024°58'0 0.0
2018-Feb-15 10:30N 60°10' E 024°58'0 0.0
2018-Feb-15 10:00N 60°10' E 024°58'0 0.0
2018-Feb-15 09:30N 60°10' E 024°58'0 0.0
2018-Feb-15 09:00N 60°10' E 024°58'0 0.0
2018-Feb-15 08:30N 60°10' E 024°58'0 0.1
2018-Feb-15 08:00N 60°10' E 024°58'713.3
2018-Feb-15 07:30N 60°03' E 024°58'917.3
2018-Feb-15 07:00N 59°57' E 024°47'917.8
2018-Feb-15 06:30N 59°52' E 024°31'917.7
2018-Feb-15 05:58N 59°49' E 024°14'918.2
2018-Feb-15 05:30N 59°46' E 023°57'918.2
2018-Feb-15 05:00N 59°44' E 023°40'918.2
2018-Feb-15 04:30N 59°42' E 023°23'918.2
2018-Feb-15 04:00N 59°40' E 023°05'2418.2
2018-Feb-15 02:42N 59°35' E 022°19'418.1
2018-Feb-15 02:29N 59°34' E 022°12'1018.2
2018-Feb-15 01:57N 59°32' E 021°53'818.2
2018-Feb-15 01:30N 59°33' E 021°37'918.2
2018-Feb-15 01:00N 59°35' E 021°20'3917.9
2018-Feb-14 22:48N 59°50' E 020°07'14 7.1
2018-Feb-14 20:48N 59°58' E 019°44'517.2
2018-Feb-14 20:30N 59°55' E 019°37'817.1
2018-Feb-14 20:00N 59°49' E 019°24'816.5
2018-Feb-14 19:30N 59°44' E 019°12'816.1
2018-Feb-14 19:00N 59°40' E 018°57'611.2
2018-Feb-14 18:31N 59°37' E 018°49'612.3
2018-Feb-14 18:00N 59°34' E 018°38'510.0
2018-Feb-14 17:30N 59°31' E 018°30'611.4
2018-Feb-14 17:00N 59°26' E 018°23'510.2
2018-Feb-14 16:30N 59°21' E 018°26'510.5
2018-Feb-14 16:01N 59°22' E 018°16'510.7
2018-Feb-14 15:31N 59°19' E 018°07'0 0.8
2018-Feb-14 14:58N 59°19' E 018°06'0 0.0
2018-Feb-14 14:28N 59°19' E 018°06'0 0.0
2018-Feb-14 13:58N 59°19' E 018°06'0 0.0
2018-Feb-14 13:28N 59°19' E 018°06'0 0.0
2018-Feb-14 12:58N 59°19' E 018°06'0 0.0
2018-Feb-14 12:28N 59°19' E 018°06'0 0.0
2018-Feb-14 11:58N 59°19' E 018°06'0 0.0
2018-Feb-14 11:28N 59°19' E 018°06'0 0.0
2018-Feb-14 10:58N 59°19' E 018°06'0 0.0
2018-Feb-14 10:28N 59°19' E 018°06'0 0.0
2018-Feb-14 09:58N 59°19' E 018°06'0 0.0
2018-Feb-14 09:28N 59°19' E 018°06'0 0.0
2018-Feb-14 09:00N 59°19' E 018°06'3 6.5
2018-Feb-14 08:30N 59°20' E 018°12'611.3
2018-Feb-14 08:00N 59°22' E 018°22'3 5.3
2018-Feb-14 07:30N 59°24' E 018°26'4 8.4
2018-Feb-14 07:00N 59°28' E 018°26'610.8
2018-Feb-14 06:29N 59°32' E 018°34'  
Track history (hours):
 
Tides and Currents Weather Stations Pressure Air Temp Water Temp Dewpoint Dewpoint Depression Visibility Wind Speed Wind Dir Waves Ship Positions

Mariella

Last reported at 2018-Feb-24 06:01 UTC. Time now 2018-Feb-24 06:14 UTC.
Position N 59°35' E 018°42'.

Length 177 m; draft 6.7 m.

Type: Ship (hazmat cat A). MMSI: 230181000.

Date/timePositionNaut miles runAvg speedWind from/ knotsBaromVisibWave heightAir tempDewpointWater temp
2018-Feb-24 06:01N 59°35' E 018°42'612.2
2018-Feb-24 05:30N 59°38' E 018°52'611.6
2018-Feb-24 05:01N 59°42' E 019°01'815.1
2018-Feb-24 04:30N 59°45' E 019°15'815.0
2018-Feb-24 04:00N 59°49' E 019°27'815.2
2018-Feb-24 03:31N 59°54' E 019°38'915.2
2018-Feb-24 02:56N 60°01' E 019°50'4111.7
2018-Feb-23 23:26N 59°38' E 020°58'717.2
2018-Feb-23 23:00N 59°36' E 021°12'917.4
2018-Feb-23 22:31N 59°34' E 021°29'4217.4
2018-Feb-23 20:06N 59°37' E 022°52'218.4
2018-Feb-23 20:00N 59°38' E 022°55'917.9
2018-Feb-23 19:30N 59°39' E 023°12'917.8
2018-Feb-23 19:01N 59°41' E 023°29'918.2
2018-Feb-23 18:30N 59°44' E 023°47'917.8
2018-Feb-23 18:00N 59°47' E 024°04'918.0
2018-Feb-23 17:30N 59°50' E 024°20'816.0
2018-Feb-23 17:00N 59°53' E 024°35'917.1
2018-Feb-23 16:30N 59°58' E 024°49'815.2
2018-Feb-23 16:00N 60°04' E 024°58'611.8
2018-Feb-23 15:30N 60°10' E 024°58'0 0.2
2018-Feb-23 14:59N 60°10' E 024°58'0 0.0
2018-Feb-23 14:29N 60°10' E 024°58'0 0.0
2018-Feb-23 13:59N 60°10' E 024°58'0 0.0
2018-Feb-23 13:29N 60°10' E 024°58'0 0.0
2018-Feb-23 12:59N 60°10' E 024°58'0 0.0
2018-Feb-23 12:29N 60°10' E 024°58'0 0.0
2018-Feb-23 11:59N 60°10' E 024°58'0 0.0
2018-Feb-23 11:29N 60°10' E 024°58'0 0.0
2018-Feb-23 10:59N 60°10' E 024°58'0 0.0
2018-Feb-23 10:29N 60°10' E 024°58'0 0.0
2018-Feb-23 09:59N 60°10' E 024°58'0 0.0
2018-Feb-23 09:29N 60°10' E 024°58'0 0.0
2018-Feb-23 08:56N 60°10' E 024°58'0 0.0
2018-Feb-23 08:29N 60°10' E 024°58'0 0.0
2018-Feb-23 08:00N 60°10' E 024°58'612.1
2018-Feb-23 07:30N 60°04' E 024°58'815.8
2018-Feb-23 07:01N 59°57' E 024°48'816.8
2018-Feb-23 06:31N 59°53' E 024°34'917.0
2018-Feb-23 06:00N 59°49' E 024°19'918.2
2018-Feb-23 05:31N 59°47' E 024°01'918.5
2018-Feb-23 05:01N 59°45' E 023°44'918.5
2018-Feb-23 04:30N 59°42' E 023°26'918.6
2018-Feb-23 04:01N 59°40' E 023°08'1018.7
2018-Feb-23 03:30N 59°38' E 022°49'1418.2
2018-Feb-23 02:43N 59°35' E 022°22'419.0
2018-Feb-23 02:30N 59°34' E 022°14'1618.0
2018-Feb-23 01:37N 59°32' E 021°43'218.2
2018-Feb-23 01:30N 59°33' E 021°39'918.4
2018-Feb-23 01:00N 59°34' E 021°21'918.3
2018-Feb-23 00:30N 59°36' E 021°03'3318.1
2018-Feb-22 22:40N 59°51' E 020°04'318.3
2018-Feb-22 22:30N 59°53' E 019°59'9 5.1
2018-Feb-22 20:46N 59°58' E 019°45'417.3
2018-Feb-22 20:30N 59°55' E 019°39'917.4
2018-Feb-22 20:00N 59°49' E 019°27'816.9
2018-Feb-22 19:30N 59°44' E 019°13'917.3
2018-Feb-22 19:00N 59°40' E 018°57'611.5
2018-Feb-22 18:30N 59°37' E 018°48'612.4
2018-Feb-22 18:00N 59°34' E 018°38'5 9.7
2018-Feb-22 17:30N 59°31' E 018°30'611.8
2018-Feb-22 17:00N 59°26' E 018°23'4 9.1
2018-Feb-22 16:30N 59°22' E 018°25'510.3
2018-Feb-22 16:00N 59°21' E 018°15'510.2
2018-Feb-22 15:30N 59°19' E 018°06'0 0.1
2018-Feb-22 15:00N 59°19' E 018°06'0 0.0
2018-Feb-22 14:30N 59°19' E 018°06'0 0.0
2018-Feb-22 13:54N 59°19' E 018°06'0 0.0
2018-Feb-22 13:24N 59°19' E 018°06'0 0.0
2018-Feb-22 13:00N 59°19' E 018°06'0 0.0
2018-Feb-22 12:30N 59°19' E 018°06'0 0.0
2018-Feb-22 12:00N 59°19' E 018°06'0 0.0
2018-Feb-22 11:30N 59°19' E 018°06'0 0.0
2018-Feb-22 10:57N 59°19' E 018°06'0 0.0
2018-Feb-22 10:27N 59°19' E 018°06'0 0.0
2018-Feb-22 10:00N 59°19' E 018°06'0 0.0
2018-Feb-22 09:30N 59°19' E 018°06'0 0.0
2018-Feb-22 09:01N 59°19' E 018°06'3 5.4
2018-Feb-22 08:30N 59°20' E 018°11'611.5
2018-Feb-22 08:00N 59°23' E 018°21'3 6.4
2018-Feb-22 07:30N 59°24' E 018°27'4 9.0
2018-Feb-22 07:00N 59°28' E 018°26'510.6
2018-Feb-22 06:30N 59°32' E 018°33'511.1
2018-Feb-22 06:00N 59°35' E 018°43'612.6
2018-Feb-22 05:30N 59°38' E 018°53'612.0
2018-Feb-22 05:00N 59°42' E 019°02'815.1
2018-Feb-22 04:30N 59°45' E 019°16'714.8
2018-Feb-22 04:00N 59°49' E 019°28'815.2
2018-Feb-22 03:30N 59°55' E 019°38'815.2
2018-Feb-22 02:59N 60°00' E 019°50'4011.6
2018-Feb-21 23:33N 59°38' E 020°55'117.4
2018-Feb-21 23:29N 59°38' E 020°58'817.2
2018-Feb-21 23:00N 59°36' E 021°14'917.3
2018-Feb-21 22:30N 59°34' E 021°30'1316.9
2018-Feb-21 21:45N 59°32' E 021°55'3017.4
2018-Feb-21 20:02N 59°38' E 022°53'118.1
2018-Feb-21 20:00N 59°38' E 022°54'917.5
2018-Feb-21 19:30N 59°40' E 023°11'917.6
2018-Feb-21 19:00N 59°42' E 023°28'917.8
2018-Feb-21 18:30N 59°44' E 023°45'917.6
2018-Feb-21 18:00N 59°46' E 024°02'917.7
2018-Feb-21 17:31N 59°49' E 024°18'917.1
2018-Feb-21 17:00N 59°53' E 024°34'917.4
2018-Feb-21 16:30N 59°57' E 024°48'816.7
2018-Feb-21 16:00N 60°04' E 024°58'511.0
2018-Feb-21 15:31N 60°10' E 024°57'0 0.3
2018-Feb-21 14:58N 60°10' E 024°58'0 0.0
2018-Feb-21 14:28N 60°10' E 024°58'0 0.0
2018-Feb-21 13:58N 60°10' E 024°58'0 0.0
2018-Feb-21 13:28N 60°10' E 024°58'0 0.0
2018-Feb-21 12:58N 60°10' E 024°58'0 0.0
2018-Feb-21 12:28N 60°10' E 024°58'0 0.0
2018-Feb-21 11:58N 60°10' E 024°58'0 0.0
2018-Feb-21 11:28N 60°10' E 024°58'0 0.0
2018-Feb-21 10:58N 60°10' E 024°58'0 0.0
2018-Feb-21 10:28N 60°10' E 024°58'0 0.0
2018-Feb-21 09:58N 60°10' E 024°58'0 0.0
2018-Feb-21 09:28N 60°10' E 024°58'0 0.0
2018-Feb-21 08:58N 60°10' E 024°58'0 0.0
2018-Feb-21 08:31N 60°10' E 024°58'0 0.1
2018-Feb-21 08:01N 60°10' E 024°58'611.7
2018-Feb-21 07:30N 60°04' E 024°58'815.9
2018-Feb-21 07:00N 59°58' E 024°48'816.9
2018-Feb-21 06:31N 59°53' E 024°34'917.1
2018-Feb-21 06:00N 59°49' E 024°19'918.2
2018-Feb-21 05:30N 59°46' E 024°02'1019.0
2018-Feb-21 05:00N 59°44' E 023°43'918.7
2018-Feb-21 04:30N 59°42' E 023°25'918.5
2018-Feb-21 04:01N 59°39' E 023°08'1018.6
2018-Feb-21 03:30N 59°38' E 022°49'1318.0
2018-Feb-21 02:47N 59°35' E 022°24'518.2
2018-Feb-21 02:30N 59°34' E 022°14'1517.9
2018-Feb-21 01:41N 59°32' E 021°46'318.3
2018-Feb-21 01:30N 59°32' E 021°39'918.3
2018-Feb-21 01:00N 59°34' E 021°22'918.5
2018-Feb-21 00:30N 59°36' E 021°04'3418.0
2018-Feb-20 22:39N 59°51' E 020°04'12 6.3
2018-Feb-20 20:42N 59°57' E 019°44'317.6
2018-Feb-20 20:31N 59°55' E 019°39'917.5
2018-Feb-20 20:00N 59°48' E 019°27'917.2
2018-Feb-20 19:30N 59°44' E 019°12'817.0
2018-Feb-20 19:01N 59°40' E 018°57'611.5
2018-Feb-20 18:31N 59°37' E 018°48'612.4
2018-Feb-20 18:01N 59°34' E 018°38'510.1
2018-Feb-20 17:31N 59°31' E 018°30'611.7
2018-Feb-20 17:00N 59°26' E 018°23'4 8.5
2018-Feb-20 16:30N 59°22' E 018°25'510.4
2018-Feb-20 16:00N 59°21' E 018°15'5 9.8
2018-Feb-20 15:30N 59°19' E 018°06'0 0.1
2018-Feb-20 15:00N 59°19' E 018°06'0 0.0
2018-Feb-20 14:30N 59°19' E 018°06'0 0.0
2018-Feb-20 14:00N 59°19' E 018°06'0 0.0
2018-Feb-20 13:30N 59°19' E 018°06'0 0.0
2018-Feb-20 13:00N 59°19' E 018°06'0 0.0
2018-Feb-20 12:30N 59°19' E 018°06'0 0.0
2018-Feb-20 12:00N 59°19' E 018°06'0 0.0
2018-Feb-20 11:30N 59°19' E 018°06'0 0.0
2018-Feb-20 11:00N 59°19' E 018°06'0 0.0
2018-Feb-20 10:27N 59°19' E 018°06'0 0.0
2018-Feb-20 10:00N 59°19' E 018°06'0 0.0
2018-Feb-20 09:30N 59°19' E 018°06'0 0.0
2018-Feb-20 09:00N 59°19' E 018°06'3 5.9
2018-Feb-20 08:30N 59°20' E 018°12'611.2
2018-Feb-20 08:00N 59°23' E 018°21'3 6.1
2018-Feb-20 07:30N 59°24' E 018°27'4 8.8
2018-Feb-20 07:00N 59°28' E 018°26'510.8
2018-Feb-20 06:30N 59°32' E 018°34'611.3
2018-Feb-20 06:00N 59°35' E 018°43'612.9
2018-Feb-20 05:30N 59°39' E 018°53'611.4
2018-Feb-20 05:01N 59°42' E 019°02'815.3
2018-Feb-20 04:31N 59°45' E 019°17'815.3
2018-Feb-20 04:01N 59°49' E 019°29'815.5
2018-Feb-20 03:31N 59°55' E 019°39'4210.6
2018-Feb-19 23:32N 59°38' E 020°56'017.0
2018-Feb-19 23:30N 59°38' E 020°57'917.2
2018-Feb-19 23:00N 59°36' E 021°13'917.3
2018-Feb-19 22:30N 59°34' E 021°30'4217.2
2018-Feb-19 20:03N 59°38' E 022°53'117.2
2018-Feb-19 20:00N 59°38' E 022°55'917.7
2018-Feb-19 19:30N 59°40' E 023°12'917.7
2018-Feb-19 19:00N 59°42' E 023°29'917.9
2018-Feb-19 18:30N 59°44' E 023°46'917.3
2018-Feb-19 18:00N 59°47' E 024°02'917.6
2018-Feb-19 17:30N 59°49' E 024°19'917.5
2018-Feb-19 17:00N 59°53' E 024°34'917.6
2018-Feb-19 16:30N 59°58' E 024°50'816.5
2018-Feb-19 16:01N 60°05' E 024°58'510.2
2018-Feb-19 15:31N 60°10' E 024°58'0 0.2
2018-Feb-19 15:00N 60°10' E 024°58'0 0.0
2018-Feb-19 14:30N 60°10' E 024°58'0 0.0
2018-Feb-19 14:00N 60°10' E 024°58'0 0.0
2018-Feb-19 13:30N 60°10' E 024°58'0 0.0
2018-Feb-19 13:00N 60°10' E 024°58'0 0.0
2018-Feb-19 12:30N 60°10' E 024°58'0 0.0
2018-Feb-19 12:00N 60°10' E 024°58'0 0.0
2018-Feb-19 11:29N 60°10' E 024°58'0 0.0
2018-Feb-19 11:00N 60°10' E 024°58'0 0.0
2018-Feb-19 10:28N 60°10' E 024°58'0 0.0
2018-Feb-19 10:00N 60°10' E 024°58'0 0.0
2018-Feb-19 09:30N 60°10' E 024°58'0 0.0
2018-Feb-19 08:59N 60°10' E 024°58'0 0.0
2018-Feb-19 08:30N 60°10' E 024°58'0 0.0
2018-Feb-19 08:00N 60°10' E 024°58'3 6.6
2018-Feb-19 07:30N 60°07' E 024°59'816.8
2018-Feb-19 07:00N 59°59' E 024°53'918.0
2018-Feb-19 06:30N 59°54' E 024°37'918.2
2018-Feb-19 06:00N 59°50' E 024°22'918.3
2018-Feb-19 05:30N 59°47' E 024°04'918.3
2018-Feb-19 05:00N 59°45' E 023°46'918.3
2018-Feb-19 04:30N 59°43' E 023°29'918.3
2018-Feb-19 04:00N 59°41' E 023°11'1018.3
2018-Feb-19 03:27N 59°38' E 022°52'1718.3
2018-Feb-19 02:32N 59°35' E 022°19'018.2
2018-Feb-19 02:30N 59°34' E 022°18'1718.4
2018-Feb-19 01:34N 59°32' E 021°45'119.0
2018-Feb-19 01:30N 59°32' E 021°42'918.9
2018-Feb-19 01:01N 59°34' E 021°24'1018.9
2018-Feb-19 00:30N 59°36' E 021°05'3418.5
2018-Feb-18 22:38N 59°51' E 020°04'12 6.2
2018-Feb-18 20:41N 59°57' E 019°43'316.9
2018-Feb-18 20:31N 59°55' E 019°39'816.9
2018-Feb-18 20:01N 59°49' E 019°28'816.5
2018-Feb-18 19:31N 59°44' E 019°14'816.8
2018-Feb-18 19:00N 59°41' E 018°59'611.9
2018-Feb-18 18:30N 59°37' E 018°50'612.5
2018-Feb-18 18:01N 59°34' E 018°39'510.2
2018-Feb-18 17:30N 59°31' E 018°31'611.6
2018-Feb-18 17:00N 59°26' E 018°24'510.5
2018-Feb-18 16:30N 59°21' E 018°27'510.5
2018-Feb-18 16:00N 59°22' E 018°16'611.0
2018-Feb-18 15:30N 59°19' E 018°07'0 0.8
2018-Feb-18 14:59N 59°19' E 018°06'0 0.0
2018-Feb-18 14:29N 59°19' E 018°06'0 0.0
2018-Feb-18 13:59N 59°19' E 018°06'0 0.0
2018-Feb-18 13:29N 59°19' E 018°06'0 0.0
2018-Feb-18 12:59N 59°19' E 018°06'0 0.0
2018-Feb-18 12:29N 59°19' E 018°06'0 0.0
2018-Feb-18 11:59N 59°19' E 018°06'0 0.0
2018-Feb-18 11:29N 59°19' E 018°06'0 0.0
2018-Feb-18 10:59N 59°19' E 018°06'0 0.0
2018-Feb-18 10:29N 59°19' E 018°06'0 0.0
2018-Feb-18 09:59N 59°19' E 018°06'0 0.0
2018-Feb-18 09:29N 59°19' E 018°06'0 0.0
2018-Feb-18 09:00N 59°19' E 018°06'3 6.0
2018-Feb-18 08:30N 59°20' E 018°12'611.4
2018-Feb-18 08:00N 59°22' E 018°21'3 5.8
2018-Feb-18 07:30N 59°24' E 018°27'4 8.4
2018-Feb-18 07:01N 59°28' E 018°26'510.8
2018-Feb-18 06:30N 59°32' E 018°33'511.1
2018-Feb-18 06:00N 59°35' E 018°43'612.5
2018-Feb-18 05:30N 59°39' E 018°53'612.0
2018-Feb-18 05:01N 59°42' E 019°02'815.1
2018-Feb-18 04:31N 59°45' E 019°16'714.9
2018-Feb-18 04:01N 59°49' E 019°28'815.2
2018-Feb-18 03:31N 59°55' E 019°39'4210.7
2018-Feb-17 23:35N 59°38' E 020°55'117.5
2018-Feb-17 23:30N 59°38' E 020°58'917.5
2018-Feb-17 23:01N 59°36' E 021°15'917.6
2018-Feb-17 22:30N 59°34' E 021°32'1117.4
2018-Feb-17 21:54N 59°32' E 021°53'917.3
2018-Feb-17 21:22N 59°33' E 022°10'2217.8
2018-Feb-17 20:10N 59°37' E 022°52'317.8
2018-Feb-17 20:00N 59°38' E 022°58'917.6
2018-Feb-17 19:31N 59°40' E 023°14'917.4
2018-Feb-17 19:01N 59°42' E 023°31'917.4
2018-Feb-17 18:30N 59°44' E 023°48'917.6
2018-Feb-17 18:00N 59°47' E 024°05'917.4
2018-Feb-17 17:30N 59°49' E 024°21'917.7
2018-Feb-17 17:01N 59°54' E 024°36'917.6
2018-Feb-17 16:31N 59°58' E 024°51'816.8
2018-Feb-17 16:01N 60°06' E 024°59'4 8.2
2018-Feb-17 15:30N 60°10' E 024°58'0 0.3
2018-Feb-17 14:58N 60°10' E 024°58'0 0.0
2018-Feb-17 14:28N 60°10' E 024°58'0 0.0
2018-Feb-17 13:58N 60°10' E 024°58'0 0.0
2018-Feb-17 13:28N 60°10' E 024°58'0 0.0
2018-Feb-17 12:58N 60°10' E 024°58'0 0.0
2018-Feb-17 12:28N 60°10' E 024°58'0 0.0
2018-Feb-17 11:58N 60°10' E 024°58'0 0.0
2018-Feb-17 11:29N 60°10' E 024°58'0 0.0
2018-Feb-17 11:00N 60°10' E 024°58'2 5.0
2018-Feb-17 10:30N 60°07' E 024°59'713.9
2018-Feb-17 10:01N 60°01' E 025°00'612.8
2018-Feb-17 09:30N 59°57' E 025°10'1 1.1
2018-Feb-17 09:00N 59°57' E 025°11'1 1.7
2018-Feb-17 08:31N 59°57' E 025°12'4 7.2
2018-Feb-17 08:00N 59°59' E 025°06'0 0.8
2018-Feb-17 07:30N 59°59' E 025°06'1 1.8
2018-Feb-17 07:00N 59°59' E 025°08'1 1.8
2018-Feb-17 06:30N 59°58' E 025°10'1 1.9
2018-Feb-17 06:00N 59°58' E 025°12'1 1.9
2018-Feb-17 05:30N 59°58' E 025°13'1 1.9
2018-Feb-17 05:00N 59°58' E 025°15'1 1.9
2018-Feb-17 04:28N 59°57' E 025°17'1 1.0
2018-Feb-17 03:58N 59°57' E 025°17'612.1
2018-Feb-17 03:31N 59°56' E 025°06'1 1.1
2018-Feb-17 03:00N 59°56' E 025°07'1 1.9
2018-Feb-17 02:30N 59°56' E 025°09'1 1.8
2018-Feb-17 02:00N 59°56' E 025°10'1 1.7
2018-Feb-17 01:28N 59°56' E 025°12'1 1.6
2018-Feb-17 01:00N 59°56' E 025°14'1 1.4
2018-Feb-17 00:30N 59°56' E 025°15'4 8.1
2018-Feb-17 00:01N 59°57' E 025°07'611.4
2018-Feb-16 23:31N 59°59' E 024°56'1 1.1
2018-Feb-16 23:00N 59°58' E 024°56'0 0.9
2018-Feb-16 22:31N 59°58' E 024°57'0 0.8
2018-Feb-16 22:01N 59°58' E 024°57'0 0.8
2018-Feb-16 21:31N 59°58' E 024°58'0 0.8
2018-Feb-16 21:00N 59°57' E 024°59'0 0.4
2018-Feb-16 20:30N 59°57' E 024°59'815.2
2018-Feb-16 20:01N 59°50' E 024°56'815.1
2018-Feb-16 19:31N 59°42' E 024°52'815.4
2018-Feb-16 19:01N 59°37' E 024°42'815.8
2018-Feb-16 18:30N 59°29' E 024°46'3 5.3
2018-Feb-16 18:01N 59°27' E 024°46'3 5.6
2018-Feb-16 17:30N 59°29' E 024°45'612.6
2018-Feb-16 17:01N 59°35' E 024°41'611.9
2018-Feb-16 16:31N 59°41' E 024°44'612.6
2018-Feb-16 16:01N 59°47' E 024°49'612.7
2018-Feb-16 15:31N 59°53' E 024°53'612.6
2018-Feb-16 15:01N 59°59' E 024°57'612.7
2018-Feb-16 14:31N 60°05' E 024°58'5 9.4
2018-Feb-16 14:00N 60°10' E 024°58'0 0.3
2018-Feb-16 13:29N 60°10' E 024°58'0 0.0
2018-Feb-16 12:59N 60°10' E 024°58'0 0.0
2018-Feb-16 12:29N 60°10' E 024°58'0 0.0
2018-Feb-16 11:59N 60°10' E 024°58'0 0.0
2018-Feb-16 11:29N 60°10' E 024°58'0 0.0
2018-Feb-16 10:59N 60°10' E 024°58'2 5.1
2018-Feb-16 10:31N 60°08' E 024°59'713.4
2018-Feb-16 10:00N 60°01' E 024°57'713.0
2018-Feb-16 09:30N 59°54' E 024°58'914.5
2018-Feb-16 08:52N 59°46' E 025°08'514.4
2018-Feb-16 08:30N 59°45' E 025°18'0 0.4
2018-Feb-16 08:00N 59°45' E 025°18'1 1.3
2018-Feb-16 07:30N 59°44' E 025°18'1 1.2
2018-Feb-16 07:00N 59°44' E 025°17'1 1.1
2018-Feb-16 06:30N 59°43' E 025°17'1 1.0
2018-Feb-16 06:00N 59°43' E 025°17'0 0.9
2018-Feb-16 05:30N 59°42' E 025°17'0 1.0
2018-Feb-16 05:00N 59°42' E 025°17'0 0.8
2018-Feb-16 04:30N 59°41' E 025°17'0 0.8
2018-Feb-16 04:00N 59°41' E 025°17'5 9.1
2018-Feb-16 03:27N 59°46' E 025°14'0 0.6
2018-Feb-16 03:00N 59°46' E 025°14'0 0.4
2018-Feb-16 02:30N 59°46' E 025°14'0 0.5
2018-Feb-16 02:00N 59°46' E 025°13'0 0.8
2018-Feb-16 01:30N 59°45' E 025°13'0 0.9
2018-Feb-16 00:58N 59°45' E 025°13'0 0.9
2018-Feb-16 00:30N 59°44' E 025°12'1 1.1
2018-Feb-16 00:00N 59°44' E 025°13'1 1.2
2018-Feb-15 23:30N 59°43' E 025°13'1 1.3
2018-Feb-15 23:00N 59°43' E 025°13'1 1.3
2018-Feb-15 22:30N 59°42' E 025°13'1 1.4
2018-Feb-15 22:00N 59°41' E 025°14'1 1.4
2018-Feb-15 21:30N 59°41' E 025°14'0 0.6
2018-Feb-15 21:00N 59°41' E 025°14'510.3
2018-Feb-15 20:30N 59°42' E 025°05'612.4
2018-Feb-15 20:00N 59°43' E 024°53'612.5
2018-Feb-15 19:30N 59°38' E 024°44'611.2
2018-Feb-15 19:00N 59°33' E 024°44'611.9
2018-Feb-15 18:30N 59°27' E 024°47'1 1.1
2018-Feb-15 18:00N 59°27' E 024°46'3 5.5
2018-Feb-15 17:30N 59°29' E 024°45'612.5
2018-Feb-15 17:00N 59°35' E 024°41'611.6
2018-Feb-15 16:30N 59°41' E 024°44'612.4
2018-Feb-15 16:00N 59°47' E 024°49'612.4
2018-Feb-15 15:30N 59°52' E 024°53'612.4
2018-Feb-15 15:00N 59°58' E 024°57'612.6
2018-Feb-15 14:30N 60°05' E 024°58'510.7
2018-Feb-15 14:00N 60°10' E 024°58'0 0.3
2018-Feb-15 13:30N 60°10' E 024°58'0 0.0
2018-Feb-15 13:00N 60°10' E 024°58'0 0.0
2018-Feb-15 12:30N 60°10' E 024°58'0 0.0
2018-Feb-15 12:00N 60°10' E 024°58'0 0.0
2018-Feb-15 11:30N 60°10' E 024°58'0 0.0
2018-Feb-15 10:54N 60°10' E 024°58'0 0.0
2018-Feb-15 10:30N 60°10' E 024°58'0 0.0
2018-Feb-15 10:00N 60°10' E 024°58'0 0.0
2018-Feb-15 09:30N 60°10' E 024°58'0 0.0
2018-Feb-15 09:00N 60°10' E 024°58'0 0.0
2018-Feb-15 08:30N 60°10' E 024°58'0 0.1
2018-Feb-15 08:00N 60°10' E 024°58'713.3
2018-Feb-15 07:30N 60°03' E 024°58'917.3
2018-Feb-15 07:00N 59°57' E 024°47'917.8
2018-Feb-15 06:30N 59°52' E 024°31'917.7
2018-Feb-15 05:58N 59°49' E 024°14'918.2
2018-Feb-15 05:30N 59°46' E 023°57'918.2
2018-Feb-15 05:00N 59°44' E 023°40'918.2
2018-Feb-15 04:30N 59°42' E 023°23'918.2
2018-Feb-15 04:00N 59°40' E 023°05'2418.2
2018-Feb-15 02:42N 59°35' E 022°19'418.1
2018-Feb-15 02:29N 59°34' E 022°12'1018.2
2018-Feb-15 01:57N 59°32' E 021°53'818.2
2018-Feb-15 01:30N 59°33' E 021°37'918.2
2018-Feb-15 01:00N 59°35' E 021°20'3917.9
2018-Feb-14 22:48N 59°50' E 020°07'14 7.1
2018-Feb-14 20:48N 59°58' E 019°44'517.2
2018-Feb-14 20:30N 59°55' E 019°37'817.1
2018-Feb-14 20:00N 59°49' E 019°24'816.5
2018-Feb-14 19:30N 59°44' E 019°12'816.1
2018-Feb-14 19:00N 59°40' E 018°57'611.2
2018-Feb-14 18:31N 59°37' E 018°49'612.3
2018-Feb-14 18:00N 59°34' E 018°38'510.0
2018-Feb-14 17:30N 59°31' E 018°30'611.4
2018-Feb-14 17:00N 59°26' E 018°23'510.2
2018-Feb-14 16:30N 59°21' E 018°26'510.5
2018-Feb-14 16:01N 59°22' E 018°16'510.7
2018-Feb-14 15:31N 59°19' E 018°07'0 0.8
2018-Feb-14 14:58N 59°19' E 018°06'0 0.0
2018-Feb-14 14:28N 59°19' E 018°06'0 0.0
2018-Feb-14 13:58N 59°19' E 018°06'0 0.0
2018-Feb-14 13:28N 59°19' E 018°06'0 0.0
2018-Feb-14 12:58N 59°19' E 018°06'0 0.0
2018-Feb-14 12:28N 59°19' E 018°06'0 0.0
2018-Feb-14 11:58N 59°19' E 018°06'0 0.0
2018-Feb-14 11:28N 59°19' E 018°06'0 0.0
2018-Feb-14 10:58N 59°19' E 018°06'0 0.0
2018-Feb-14 10:28N 59°19' E 018°06'0 0.0
2018-Feb-14 09:58N 59°19' E 018°06'0 0.0
2018-Feb-14 09:28N 59°19' E 018°06'0 0.0
2018-Feb-14 09:00N 59°19' E 018°06'3 6.5
2018-Feb-14 08:30N 59°20' E 018°12'611.3
2018-Feb-14 08:00N 59°22' E 018°22'3 5.3
2018-Feb-14 07:30N 59°24' E 018°26'4 8.4
2018-Feb-14 07:00N 59°28' E 018°26'610.8
2018-Feb-14 06:29N 59°32' E 018°34'  

Dump ship's entire track history